CYKO

Akulivik Airport

ICAO Code CYKO
IATA Code AKV
Name Akulivik Airport
Location Akulivik, Quebec, CA
Elevation 76 Feet / 23.2 Meters
Latitude 60.81861111
Longitude -78.14861111
METAR CYKO 131600Z 33008KT 15SM OVC009 M06/M08 A3027 RMK SC8 SLP254
Extra information Display Charts and CFS
Display NOTAMS
Runway Length Width Surface Elevation
08 3521 ft 100 ft GVL 42 ft
26 3521 ft 100 ft GVL 76 ft